Terminal Aerodrome Forecast
Issued by NWS

Home | Current Version | Previous Version | Text Only | Print | Product List | Glossary Off
Versions: 1 2 3 4 5 6 7 8 9 10 11 12 13 14 15 16 17

142
FTUS41 KCLE 300520
TAFFDY
TAF
KFDY 300520Z 3006/0106 17008KT P6SM SCT030 OVC050
      TEMPO 3009/3013 6SM -SHRA BR OVC020
     FM301300 17007KT P6SM VCSH OVC015
     FM301800 24010KT 6SM -SHRA SCT015 OVC025
     FM302100 24010KT P6SM BKN025=

USA.gov is the U.S. government's official web portal to all federal, state and local government web resources and services.